NWS Home NWS Lubbock West Texas Mesonet South Sector Latest Conditions as of 0809 PM, Tue Jan 15, 2019

Latest   N   C   S   Daily Sum   3hrΔ   24hrΔ   Soil Data 
Site Map   24hr Precip   72hr Precip   Google Plot


Station Time of Last Temp Dew Pt. RH Wind Direction Wind Speed Wind Gust Max Wind Max Temp Min Temp Max RH Min RH Altimeter 1HR Rain Today's Rain Solar Rad Wind Chill
Andrews 2E  08:05 PM 48 38 71% S710 15 mph 220° @ 0335 PM 59 39 90 47 30.16" 0 0.00 0  
Aspermont 3NE  08:05 PM 45 41 88% S79 20 mph 198° @ 0340 PM 55 44 88 64 30.15" 0 0.00 0  
Big Bend NP - Persimmon Gap  08:05 PM 47 44 91% NE33 17 mph 28° @ 1230 AM 54 41 99 76 30.20" 0 0.08 0  
Big Lake 1WNW  08:05 PM 44 43 96% S1113 21 mph 171° @ 1252 PM 49 41 97 78 30.19" 0 0.00 0  
Brownfield 2S  08:05 PM 44 36 75% SW1011 18 mph 214° @ 0400 PM 57 37 92 50 30.14" 0 0.00 0  
Clyde 2WNW  08:05 PM 43 41 93% S77 20 mph 203° @ 0251 PM 50 42 94 73 30.18" 0 0.00 0  
Colorado City 5NW  08:05 PM 47 42 84% S911 20 mph 206° @ 0226 PM 55 42 90 62 30.17" 0 0.00 0  
Coyanosa 2N  08:05 PM 47 42 82% E66 11 mph 124° @ 0434 PM 58 41 90 54 30.16" 0 0.00 0  
Crane 1NNW   08:05 PM 45 41 88% E89 13 mph 150° @ 0925 AM 56 42 88 62 30.16" 0 0.00 0  
Dell City  08:05 PM 46 36 68% NW88 12 mph 73° @ 0242 PM 63 34 92 39 30.16" 0 0.00 0  
Denver City 7WNW  08:05 PM 39 32 76% SW910 17 mph 206° @ 0430 PM 60 35 97 38 30.14" 0 0.00 0  
Fluvanna 3WNW  08:05 PM 44 39 84% S1112 23 mph 211° @ 0245 PM 53 41 89 63 30.14" 0 0.00 0  
Fort Chadbourne  08:05 PM 44 42 94% SW711 15 mph 209° @ 0353 PM 50 41 95 76 30.19" 0 0.00 0  
Fort Lancaster  08:05 PM 46 46 100% SE910 14 mph 198° @ 1132 AM 48 43 100 81 30.22" 0 0.00 0  
Fort McKavett  08:05 PM 47 44 92% S912 15 mph 209° @ 0204 PM 49 43 100 82 30.22" 0 0.00 0  
Gail 2ESE  08:05 PM 45 39 83% S810 20 mph 206° @ 0250 PM 55 42 84 56 30.14" 0 0.00 0  
Graham 5SSW  08:05 PM 49 39 72% S78 21 mph 208° @ 0215 PM 56 39 90 55 30.14" 0 0.00 0  
Guadalupe Mtns Natl Park  08:05 PM 47 32 55% W56 27 mph 286° @ 0213 PM 59 40 77 33 30.21" 0 0.00 0  
Haskell 1NW  08:05 PM 45 41 89% S710 22 mph 217° @ 1230 PM 54 43 90 68 30.16" 0 0.00 0  
Hobbs NM 5NW  08:05 PM 44 36 74% S67 14 mph 208° @ 0308 PM 58 35 100 45 30.18" 0 0.00 0  
Jayton 1SSE  08:05 PM 44 39 86% S79 20 mph 221° @ 1200 PM 57 44 86 57 30.14" 0 0.00 0  
Junction 1SSW  08:05 PM 49 45 88% S56 13 mph 202° @ 0156 PM 51 43 96 79 30.24" 0 0.00 0  
Lake Alan Henry 1NW  08:05 PM 46 40 82% SW78 19 mph 220° @ 1202 PM 56 43 84 60 30.14" 0 0.00 0  
Lamesa 2SE  08:05 PM 41 37 86% S89 19 mph 207° @ 0355 PM 55 39 92 60 30.16" 0 0.00 0  
Lomax 1SSE  08:05 PM 44 40 86% S89 18 mph 207° @ 0132 PM 54 43 87 63 30.17" 0 0.00 0  
McCamey 1SSW  08:05 PM 47 44 89% E78 13 mph 154° @ 1124 AM 54 42 90 67 30.18" 0 0.00 0  
Menard 2NW   08:05 PM 48 45 87% S811 17 mph 256° @ 0347 PM 51 42 100 77 30.22" 0 0.00 0  
Mertzon 3NNE  08:05 PM 43 42 98% S45 19 mph 193° @ 0105 PM 47 42 98 82 30.21" 0 0.00 0  
New Home  08:05 PM 44 37 75% S99 19 mph 237° @ 1239 PM 57 38 92 48 30.14" 0 0.00 0  
O'Donnell 1N  08:05 PM 46 37 73% S1013 20 mph 229° @ 0225 PM 57 38 90 49 30.14" 0 0.00 0  
Plains 3N  08:05 PM 44 35 73% SW912 17 mph 238° @ 0230 PM 61 36 95 40 30.13" 0 0.00 0  
Post 1NE  08:05 PM 46 40 80% S910 21 mph 237° @ 1115 AM 59 41 89 49 30.12" 0 0.00 0  
Rotan 5W  08:05 PM 44 40 87% S77 23 mph 201° @ 0313 PM 54 43 88 66 30.15" 0 0.00 0  
San Angelo 7NW  08:05 PM 43 39 88% S33 16 mph 217° @ 0440 PM 51 43 88 71 30.20" 0 0.00 0  
Seagraves 1SW  08:05 PM 44 37 77% S910 18 mph 206° @ 0120 PM 58 37 94 48 30.15" 0 0.00 0  
Seminole 2NNE  08:05 PM 47 37 70% SW78 15 mph 205° @ 0115 PM 58 36 94 47 30.15" 0 0.00 0  
Sierra Blanca 1SSE  08:05 PM 54 43 66% SW44 20 mph 237° @ 0348 PM 66 39 85 35 30.19" 0 0.00 0  
Snyder 3E  08:05 PM 45 42 90% S1013 22 mph 207° @ 0225 PM 54 42 93 66 30.15" 0 0.00 0  
Snyder 3SSW  08:05 PM 44 41 89% S79 22 mph 200° @ 0246 PM 54 42 90 62 30.16" 0 0.00 0  
St. Lawrence 5SW  08:05 PM 44 41 91% S1012 16 mph 195° @ 0350 PM 54 42 91 65 30.18" 0 0.00 0  
Stamford 5ESE  08:05 PM 44 42 92% S68 19 mph 192° @ 0251 PM 53 43 92 70 30.17" 0 0.00 0  
Sterling City 4WSW  08:05 PM 42 42 98% SE12 15 mph 194° @ 0343 PM 53 42 98 66 30.20" 0 0.00 0  
Sundown 8WSW  08:05 PM 41 34 77% SW1011 19 mph 223° @ 0345 PM 63 36 95 33 30.13" 0 0.00 0  
Sweetwater 11SW   08:00 PM 43 40 90% S78 20 mph 215° @ 0239 PM 52 41 91 70 30.18" 0 0.00 0  
Tahoka 3NNE  08:05 PM 43 37 78% S89 19 mph 247° @ 1037 AM 57 39 88 47 30.13" 0 0.00 0  
Tarzan 2WNW  08:05 PM 44 39 83% S78 17 mph 209° @ 0249 PM 55 41 88 58 30.17" 0 0.00 0  
Tatum NM 2SW  08:05 PM 39 33 79% SW1010 15 mph 231° @ 0340 PM 62 34 96 24 30.14" 0 0.00 0  
Throckmorton 1SW  08:05 PM 47 42 85% S79 21 mph 208° @ 0125 PM 56 42 89 61 30.18" 0 0.00 0  
Van Horn 3ENE  08:05 PM 53 44 72% SW67 19 mph 192° @ 0141 PM 66 34 97 42 30.18" 0 0.00 0  
Wall 2E  08:05 PM 42 40 94% SW56 20 mph 198° @ 0156 PM 52 42 94 73 30.22" 0 0.00 0  
Weinert 2NNE  08:05 PM 46 42 85% S1011 23 mph 225° @ 1231 PM 54 42 87 65 30.16" 0 0.00 0  
Welch  08:05 PM 43 37 79% S56 21 mph 223° @ 0220 PM 58 38 94 49 30.15" 0 0.00 0  

West Texas Mesonet Home   Site Map/Menu  NWS Lubbock Soil Data  Daily Summary Page  24hr Precip  72hr Precip  Google Plot